Time;durP1;ratioP1;P1;durP2;ratioP2;P2;SDS_P1;SDS_P2;PMS_P1;PMS_P2;Temp;Humidity;BMP_temperature;BMP_pressure;BME280_temperature;BME280_humidity;BME280_pressure;Samples;Min_cycle;Max_cycle;Signal;HPM_P1;HPM_P2
2022/05/28 00:01:31;;;;;;;8.48;5.15;;;;;;;;;;5005759;28;20111;-85
2022/05/28 00:03:59;;;;;;;8.45;5.20;;;;;;;;;;5020901;28;20072;-86
2022/05/28 00:06:29;;;;;;;8.10;5.30;;;;;;;;;;5021630;28;20100;-85
2022/05/28 00:08:56;;;;;;;8.50;4.47;;;;;;;;;;5023602;28;20022;-87
2022/05/28 00:11:32;;;;;;;9.55;5.40;;;;;;;;;;5022415;28;20033;-85
2022/05/28 00:13:58;;;;;;;8.70;4.38;;;;;;;;;;5003633;28;20056;-85
2022/05/28 00:16:24;;;;;;;6.88;4.85;;;;;;;;;;5026805;28;20096;-86
2022/05/28 00:18:52;;;;;;;8.05;4.88;;;;;;;;;;5025517;28;20393;-86
2022/05/28 00:21:18;;;;;;;10.18;4.97;;;;;;;;;;5005624;28;20025;-86
2022/05/28 00:23:47;;;;;;;6.88;4.32;;;;;;;;;;5026181;28;20436;-86
2022/05/28 00:26:14;;;;;;;8.73;5.53;;;;;;;;;;5002363;28;20033;-86
2022/05/28 00:28:39;;;;;;;9.50;4.53;;;;;;;;;;5007970;28;20138;-85
2022/05/28 00:31:07;;;;;;;6.60;4.85;;;;;;;;;;5005050;28;20183;-86
2022/05/28 00:33:33;;;;;;;9.35;5.03;;;;;;;;;;5004709;28;20026;-85
2022/05/28 00:36:00;;;;;;;5.25;4.05;;;;;;;;;;5022074;28;20040;-86
2022/05/28 00:38:26;;;;;;;7.72;4.70;;;;;;;;;;5021827;28;20063;-85
2022/05/28 00:40:55;;;;;;;7.43;4.80;;;;;;;;;;5003225;28;20072;-85
2022/05/28 00:43:21;;;;;;;6.63;4.37;;;;;;;;;;5024641;28;20481;-85
2022/05/28 00:45:50;;;;;;;9.20;4.40;;;;;;;;;;5006532;28;20263;-83
2022/05/28 00:48:29;;;;;;;7.43;4.70;;;;;;;;;;5007807;28;20065;-86
2022/05/28 00:50:57;;;;;;;5.47;4.32;;;;;;;;;;5025209;28;20028;-84
2022/05/28 00:53:22;;;;;;;8.35;4.78;;;;;;;;;;5025354;28;20029;-86
2022/05/28 00:55:48;;;;;;;8.45;5.00;;;;;;;;;;5022147;28;20097;-86
2022/05/28 00:58:14;;;;;;;8.15;4.63;;;;;;;;;;5023179;28;20060;-86
2022/05/28 01:00:39;;;;;;;8.48;4.57;;;;;;;;;;5025037;28;20029;-85
2022/05/28 01:03:32;;;;;;;6.57;4.70;;;;;;;;;;5025853;28;20026;-86
2022/05/28 01:06:04;;;;;;;7.53;4.80;;;;;;;;;;5018642;28;20034;-85
2022/05/28 01:08:38;;;;;;;6.95;4.55;;;;;;;;;;5004480;28;20037;-86
2022/05/28 01:11:28;;;;;;;7.20;4.97;;;;;;;;;;5022801;28;20022;-86
2022/05/28 01:14:21;;;;;;;9.38;5.78;;;;;;;;;;5014469;28;20128;-85
2022/05/28 01:16:52;;;;;;;11.40;5.28;;;;;;;;;;5037411;28;20064;-86
2022/05/28 01:19:33;;;;;;;10.57;5.78;;;;;;;;;;5025814;28;20040;-87
2022/05/28 01:22:10;;;;;;;10.02;6.30;;;;;;;;;;5005669;28;20033;-85
2022/05/28 01:25:09;;;;;;;9.43;5.18;;;;;;;;;;5004378;28;20441;-88
2022/05/28 01:27:42;;;;;;;7.78;5.60;;;;;;;;;;4978148;28;20030;-86
2022/05/28 01:30:10;;;;;;;6.53;4.78;;;;;;;;;;5024350;28;20125;-87
2022/05/28 01:32:37;;;;;;;12.32;5.53;;;;;;;;;;5003951;28;20371;-85
2022/05/28 01:35:09;;;;;;;5.13;4.60;;;;;;;;;;5004869;28;20491;-85
2022/05/28 01:37:36;;;;;;;4.50;3.70;;;;;;;;;;5005063;28;20137;-84
2022/05/28 01:40:05;;;;;;;7.47;3.83;;;;;;;;;;5012656;28;20108;-85
2022/05/28 01:42:31;;;;;;;5.38;3.88;;;;;;;;;;5029172;28;20033;-85
2022/05/28 01:44:58;;;;;;;7.93;4.40;;;;;;;;;;5025602;28;20482;-86
2022/05/28 01:47:24;;;;;;;6.95;4.28;;;;;;;;;;5026427;28;20116;-86
2022/05/28 01:49:51;;;;;;;8.23;4.90;;;;;;;;;;5013303;28;20106;-85
2022/05/28 01:52:18;;;;;;;7.20;4.60;;;;;;;;;;5004214;28;20066;-88
2022/05/28 01:54:46;;;;;;;9.05;5.75;;;;;;;;;;5023461;28;20350;-86
2022/05/28 01:57:13;;;;;;;6.60;5.40;;;;;;;;;;5025521;28;20357;-87
2022/05/28 01:59:40;;;;;;;11.63;5.68;;;;;;;;;;5031670;28;20083;-87
2022/05/28 02:02:10;;;;;;;11.52;6.05;;;;;;;;;;5031865;28;20025;-86
2022/05/28 02:04:38;;;;;;;9.80;5.55;;;;;;;;;;5012373;28;20114;-83
2022/05/28 02:07:05;;;;;;;10.43;5.70;;;;;;;;;;5026189;28;20033;-86
2022/05/28 02:09:47;;;;;;;6.63;5.43;;;;;;;;;;5021991;28;20053;-87
2022/05/28 02:12:24;;;;;;;11.45;4.80;;;;;;;;;;5006115;28;20044;-85
2022/05/28 02:15:12;;;;;;;7.57;4.32;;;;;;;;;;5006737;28;20493;-86
2022/05/28 02:17:59;;;;;;;9.75;4.40;;;;;;;;;;5005424;28;20028;-87
2022/05/28 02:20:44;;;;;;;11.35;4.45;;;;;;;;;;5024421;28;20525;-85
2022/05/28 02:23:24;;;;;;;5.95;3.08;;;;;;;;;;5021766;28;20407;-85
2022/05/28 02:26:05;;;;;;;5.45;3.30;;;;;;;;;;5032278;28;20037;-85
2022/05/28 02:28:33;;;;;;;7.32;3.97;;;;;;;;;;5012756;28;20034;-86
2022/05/28 02:31:08;;;;;;;4.40;3.15;;;;;;;;;;5026979;28;20043;-86
2022/05/28 02:33:35;;;;;;;5.65;3.55;;;;;;;;;;5028076;28;20539;-86
2022/05/28 02:36:00;;;;;;;8.68;3.05;;;;;;;;;;5029161;28;20030;-86
2022/05/28 02:38:26;;;;;;;5.90;3.13;;;;;;;;;;5026881;28;20030;-86
2022/05/28 02:40:54;;;;;;;6.93;2.83;;;;;;;;;;5028438;28;20041;-85
2022/05/28 02:43:22;;;;;;;6.25;3.60;;;;;;;;;;5022559;28;20461;-85
2022/05/28 02:45:47;;;;;;;4.25;3.00;;;;;;;;;;5001030;28;20159;-85
2022/05/28 02:48:13;;;;;;;6.28;2.97;;;;;;;;;;5023299;28;20116;-84
2022/05/28 02:50:39;;;;;;;5.97;3.55;;;;;;;;;;5024855;28;20036;-84
2022/05/28 02:53:05;;;;;;;5.25;3.20;;;;;;;;;;5025431;28;20483;-86
2022/05/28 02:55:30;;;;;;;5.03;2.88;;;;;;;;;;5024595;28;20036;-84
2022/05/28 02:57:56;;;;;;;6.45;3.72;;;;;;;;;;5028215;28;20513;-86
2022/05/28 03:00:21;;;;;;;4.75;3.00;;;;;;;;;;5027487;28;20025;-85
2022/05/28 03:02:49;;;;;;;5.65;3.60;;;;;;;;;;5011146;28;20075;-87
2022/05/28 03:05:16;;;;;;;8.07;3.63;;;;;;;;;;5023926;28;20034;-85
2022/05/28 03:07:42;;;;;;;9.25;3.67;;;;;;;;;;5010869;28;20025;-88
2022/05/28 03:10:08;;;;;;;6.22;4.65;;;;;;;;;;5024258;28;20025;-83
2022/05/28 03:12:34;;;;;;;7.97;3.88;;;;;;;;;;5026319;28;20030;-84
2022/05/28 03:15:00;;;;;;;5.00;4.10;;;;;;;;;;5008029;28;20037;-85
2022/05/28 03:17:25;;;;;;;7.15;3.95;;;;;;;;;;5023094;28;20366;-86
2022/05/28 03:19:51;;;;;;;5.93;3.78;;;;;;;;;;5018556;28;20021;-84
2022/05/28 03:22:16;;;;;;;6.47;3.53;;;;;;;;;;5024366;28;20104;-85
2022/05/28 03:24:42;;;;;;;5.32;3.50;;;;;;;;;;5024982;28;20029;-86
2022/05/28 03:27:07;;;;;;;5.85;4.25;;;;;;;;;;5027892;28;20576;-88
2022/05/28 03:29:33;;;;;;;7.18;4.15;;;;;;;;;;5031074;28;20030;-87
2022/05/28 03:31:58;;;;;;;13.98;4.38;;;;;;;;;;5008356;28;20029;-86
2022/05/28 03:34:24;;;;;;;5.53;3.63;;;;;;;;;;5028447;28;20105;-87
2022/05/28 03:36:49;;;;;;;6.55;3.88;;;;;;;;;;5022544;28;20049;-87
2022/05/28 03:39:15;;;;;;;5.95;4.00;;;;;;;;;;5008283;28;20036;-87
2022/05/28 03:41:40;;;;;;;7.90;3.90;;;;;;;;;;5023953;28;20033;-86
2022/05/28 03:44:06;;;;;;;5.75;3.97;;;;;;;;;;5022864;28;20029;-86
2022/05/28 03:46:35;;;;;;;10.55;4.43;;;;;;;;;;5023371;28;20040;-85
2022/05/28 03:49:06;;;;;;;6.53;3.80;;;;;;;;;;5030582;28;20046;-87
2022/05/28 03:51:32;;;;;;;8.60;4.47;;;;;;;;;;5008780;28;20025;-84
2022/05/28 03:53:58;;;;;;;6.18;4.28;;;;;;;;;;5028545;28;20033;-87
2022/05/28 03:56:34;;;;;;;10.68;4.03;;;;;;;;;;5022645;28;20028;-87
2022/05/28 03:58:59;;;;;;;9.70;4.95;;;;;;;;;;5019322;28;20061;-85
2022/05/28 04:01:25;;;;;;;6.43;4.13;;;;;;;;;;5021795;28;20110;-86
2022/05/28 04:03:50;;;;;;;7.07;4.63;;;;;;;;;;5021407;28;20021;-86
2022/05/28 04:06:16;;;;;;;6.32;4.07;;;;;;;;;;5022249;28;20025;-86
2022/05/28 04:08:41;;;;;;;7.45;4.38;;;;;;;;;;5024740;28;20025;-86
2022/05/28 04:11:10;;;;;;;5.25;3.78;;;;;;;;;;5027497;28;20095;-84
2022/05/28 04:13:36;;;;;;;6.25;4.03;;;;;;;;;;5028248;28;20029;-85
2022/05/28 04:16:01;;;;;;;5.93;4.18;;;;;;;;;;5018952;28;20033;-88
2022/05/28 04:18:27;;;;;;;7.03;4.43;;;;;;;;;;5024703;28;20033;-88
2022/05/28 04:20:52;;;;;;;7.72;4.15;;;;;;;;;;5019020;28;20497;-85
2022/05/28 04:23:18;;;;;;;5.68;3.83;;;;;;;;;;5023408;28;20032;-85
2022/05/28 04:25:43;;;;;;;7.55;3.80;;;;;;;;;;5030668;28;20035;-85
2022/05/28 04:28:10;;;;;;;7.40;4.20;;;;;;;;;;5021980;28;20033;-86
2022/05/28 04:30:36;;;;;;;6.15;3.72;;;;;;;;;;5021765;28;20025;-85
2022/05/28 04:33:01;;;;;;;6.22;4.32;;;;;;;;;;5003030;28;20507;-85
2022/05/28 04:35:27;;;;;;;5.60;3.80;;;;;;;;;;5021108;28;20029;-86
2022/05/28 04:37:52;;;;;;;8.25;3.53;;;;;;;;;;5023488;28;20430;-86
2022/05/28 04:40:18;;;;;;;5.32;3.70;;;;;;;;;;5027096;28;20021;-86
2022/05/28 04:42:43;;;;;;;6.70;3.30;;;;;;;;;;5010885;28;20500;-85
2022/05/28 04:45:09;;;;;;;5.30;3.42;;;;;;;;;;5019257;28;20017;-85
2022/05/28 04:47:35;;;;;;;5.80;3.33;;;;;;;;;;5030337;28;20504;-86
2022/05/28 04:50:00;;;;;;;6.72;3.55;;;;;;;;;;5023927;28;20429;-85
2022/05/28 04:52:26;;;;;;;4.93;3.25;;;;;;;;;;5026511;28;20037;-84
2022/05/28 04:54:51;;;;;;;5.07;3.33;;;;;;;;;;5007801;28;20030;-87
2022/05/28 04:57:17;;;;;;;10.90;4.68;;;;;;;;;;5026844;28;20048;-85
2022/05/28 04:59:42;;;;;;;7.60;4.03;;;;;;;;;;5029531;28;20029;-87
2022/05/28 05:02:09;;;;;;;7.10;3.70;;;;;;;;;;5023996;28;20029;-86
2022/05/28 05:04:34;;;;;;;6.78;3.97;;;;;;;;;;5028733;28;20390;-83
2022/05/28 05:07:00;;;;;;;6.35;4.28;;;;;;;;;;5025464;28;20042;-85
2022/05/28 05:09:25;;;;;;;8.02;4.50;;;;;;;;;;5004549;28;20033;-84
2022/05/28 05:11:51;;;;;;;7.35;4.53;;;;;;;;;;5028698;28;20469;-84
2022/05/28 05:14:16;;;;;;;9.98;5.10;;;;;;;;;;5027268;28;20029;-85
2022/05/28 05:16:42;;;;;;;9.93;4.45;;;;;;;;;;5029877;28;20025;-83
2022/05/28 05:19:07;;;;;;;7.38;4.85;;;;;;;;;;5023775;28;20477;-85
2022/05/28 05:21:33;;;;;;;7.40;5.00;;;;;;;;;;5010426;28;20446;-83
2022/05/28 05:23:59;;;;;;;7.13;4.38;;;;;;;;;;5020517;28;20033;-85
2022/05/28 05:26:24;;;;;;;16.02;5.05;;;;;;;;;;5026351;28;20127;-83
2022/05/28 05:28:50;;;;;;;7.88;5.50;;;;;;;;;;5026108;28;20087;-83
2022/05/28 05:31:16;;;;;;;8.00;5.10;;;;;;;;;;5025737;28;20021;-83
2022/05/28 05:33:42;;;;;;;8.82;5.68;;;;;;;;;;5026361;28;20040;-85
2022/05/28 05:36:09;;;;;;;8.15;4.45;;;;;;;;;;5014167;28;20025;-84
2022/05/28 05:38:35;;;;;;;10.57;4.72;;;;;;;;;;5009967;28;20025;-85
2022/05/28 05:41:01;;;;;;;7.25;4.75;;;;;;;;;;5008194;28;20030;-85
2022/05/28 05:43:26;;;;;;;10.65;5.35;;;;;;;;;;5029570;28;20032;-84
2022/05/28 05:45:53;;;;;;;8.23;4.60;;;;;;;;;;5005773;28;20413;-84
2022/05/28 05:48:18;;;;;;;6.53;4.70;;;;;;;;;;5009942;28;20129;-85
2022/05/28 05:50:44;;;;;;;5.28;3.85;;;;;;;;;;5011761;28;20449;-85
2022/05/28 05:53:09;;;;;;;5.03;3.92;;;;;;;;;;5028003;28;20116;-85
2022/05/28 05:55:35;;;;;;;7.72;4.30;;;;;;;;;;5027230;28;20428;-85
2022/05/28 05:58:00;;;;;;;8.52;4.38;;;;;;;;;;5028921;28;20037;-84
2022/05/28 06:00:26;;;;;;;8.80;4.20;;;;;;;;;;5025141;28;20034;-84
2022/05/28 06:02:51;;;;;;;7.40;4.47;;;;;;;;;;5011810;28;20030;-85
2022/05/28 06:05:17;;;;;;;8.85;4.30;;;;;;;;;;5029430;28;20025;-86
2022/05/28 06:07:42;;;;;;;7.13;4.03;;;;;;;;;;5022445;28;20032;-89
2022/05/28 06:10:10;;;;;;;7.43;4.20;;;;;;;;;;5007861;28;20105;-85
2022/05/28 06:12:35;;;;;;;7.68;4.60;;;;;;;;;;5024775;28;20474;-84
2022/05/28 06:15:00;;;;;;;8.98;4.45;;;;;;;;;;5032993;28;20075;-86
2022/05/28 06:17:26;;;;;;;6.30;4.30;;;;;;;;;;5031636;28;20473;-82
2022/05/28 06:19:52;;;;;;;11.13;5.85;;;;;;;;;;5029244;28;20029;-87
2022/05/28 06:22:17;;;;;;;14.80;6.07;;;;;;;;;;5030847;28;20033;-84
2022/05/28 06:24:42;;;;;;;9.50;5.82;;;;;;;;;;5009249;28;20029;-85
2022/05/28 06:27:08;;;;;;;9.13;5.10;;;;;;;;;;5006217;28;20477;-85
2022/05/28 06:29:34;;;;;;;9.05;5.63;;;;;;;;;;5012946;28;20032;-85
2022/05/28 06:31:59;;;;;;;16.08;6.30;;;;;;;;;;5027291;28;20018;-88
2022/05/28 06:34:24;;;;;;;10.07;5.22;;;;;;;;;;5028051;28;20052;-87
2022/05/28 06:36:50;;;;;;;15.32;5.28;;;;;;;;;;5026595;28;20049;-84
2022/05/28 06:39:15;;;;;;;10.05;5.38;;;;;;;;;;5023671;28;20499;-86
2022/05/28 06:41:44;;;;;;;7.32;5.38;;;;;;;;;;5027486;28;20022;-84
2022/05/28 06:44:09;;;;;;;8.68;4.82;;;;;;;;;;5000801;28;20128;-84
2022/05/28 06:46:35;;;;;;;7.50;5.50;;;;;;;;;;5019987;28;20033;-85
2022/05/28 06:49:00;;;;;;;8.05;6.40;;;;;;;;;;5029631;28;20068;-84
2022/05/28 06:51:26;;;;;;;11.02;5.43;;;;;;;;;;5030617;28;20029;-85
2022/05/28 06:53:51;;;;;;;7.70;4.90;;;;;;;;;;5023594;28;20488;-86
2022/05/28 06:56:18;;;;;;;9.73;7.70;;;;;;;;;;5027288;28;20048;-84
2022/05/28 06:58:44;;;;;;;17.83;11.50;;;;;;;;;;5007946;28;20022;-84
2022/05/28 07:01:11;;;;;;;10.70;4.82;;;;;;;;;;5010846;28;20493;-85
2022/05/28 07:03:38;;;;;;;9.25;4.70;;;;;;;;;;5023906;28;20029;-84
2022/05/28 07:06:03;;;;;;;8.43;5.15;;;;;;;;;;5021500;28;20072;-84
2022/05/28 07:08:29;;;;;;;8.35;4.82;;;;;;;;;;5022167;28;20465;-81
2022/05/28 07:11:00;;;;;;;10.68;5.63;;;;;;;;;;5004841;28;20033;-83
2022/05/28 07:13:27;;;;;;;6.65;4.22;;;;;;;;;;5022419;28;20111;-83
2022/05/28 07:15:53;;;;;;;10.00;5.22;;;;;;;;;;5018072;28;20527;-83
2022/05/28 07:18:19;;;;;;;9.13;4.55;;;;;;;;;;5030114;28;20112;-82
2022/05/28 07:20:45;;;;;;;7.90;4.22;;;;;;;;;;5006495;28;20025;-83
2022/05/28 07:23:16;;;;;;;10.60;5.35;;;;;;;;;;5027177;28;20045;-83
2022/05/28 07:25:43;;;;;;;9.57;4.05;;;;;;;;;;5022382;28;20072;-83
2022/05/28 07:30:52;;;;;;;8.00;3.40;;;;;;;;;;5022323;28;20056;-82
2022/05/28 07:33:19;;;;;;;9.50;4.78;;;;;;;;;;5009060;28;20465;-82
2022/05/28 07:35:45;;;;;;;7.50;3.88;;;;;;;;;;5019764;28;20049;-82
2022/05/28 07:38:11;;;;;;;8.65;3.88;;;;;;;;;;5024908;28;20079;-82
2022/05/28 07:40:36;;;;;;;7.03;4.28;;;;;;;;;;5027328;28;20436;-82
2022/05/28 07:43:02;;;;;;;5.55;3.25;;;;;;;;;;5021888;28;20017;-82
2022/05/28 07:45:30;;;;;;;5.72;3.72;;;;;;;;;;5023282;28;20044;-83
2022/05/28 07:47:56;;;;;;;8.43;4.15;;;;;;;;;;5027400;28;20449;-83
2022/05/28 07:50:22;;;;;;;8.65;3.90;;;;;;;;;;5008254;28;20032;-82
2022/05/28 07:52:48;;;;;;;6.03;3.97;;;;;;;;;;5031778;28;20025;-81
2022/05/28 07:55:13;;;;;;;6.82;4.20;;;;;;;;;;5005552;28;20026;-82
2022/05/28 07:57:39;;;;;;;6.82;3.95;;;;;;;;;;5018272;28;20432;-81
2022/05/28 08:00:05;;;;;;;6.68;4.20;;;;;;;;;;5022104;28;20437;-83
2022/05/28 08:02:30;;;;;;;7.43;4.75;;;;;;;;;;5024942;28;20037;-83
2022/05/28 08:04:56;;;;;;;7.10;4.93;;;;;;;;;;5020492;28;20519;-81
2022/05/28 08:07:43;;;;;;;7.68;4.25;;;;;;;;;;5023544;28;20521;-82
2022/05/28 08:10:43;;;;;;;8.13;3.90;;;;;;;;;;5027466;28;20083;-85
2022/05/28 08:13:42;;;;;;;9.55;4.60;;;;;;;;;;4994231;28;20034;-84
2022/05/28 08:16:07;;;;;;;8.57;4.07;;;;;;;;;;5020849;28;20025;-81
2022/05/28 08:18:36;;;;;;;7.45;4.07;;;;;;;;;;5022954;28;20036;-82
2022/05/28 08:23:47;;;;;;;9.95;4.15;;;;;;;;;;5026502;28;20049;-85
2022/05/28 08:26:14;;;;;;;8.07;4.28;;;;;;;;;;5008982;28;20041;-81
2022/05/28 08:28:40;;;;;;;8.32;4.45;;;;;;;;;;5024651;28;20057;-81
2022/05/28 08:31:06;;;;;;;7.70;3.85;;;;;;;;;;5021963;28;20484;-83
2022/05/28 08:33:35;;;;;;;7.32;4.10;;;;;;;;;;5026931;28;20043;-82
2022/05/28 08:36:02;;;;;;;8.77;4.95;;;;;;;;;;5017996;28;20499;-82
2022/05/28 08:38:28;;;;;;;6.30;4.25;;;;;;;;;;5017398;28;20033;-82
2022/05/28 08:41:24;;;;;;;7.47;3.97;;;;;;;;;;5018316;28;20034;-84
2022/05/28 08:44:02;;;;;;;10.57;4.97;;;;;;;;;;5020315;28;20099;-83
2022/05/28 08:46:33;;;;;;;7.68;3.70;;;;;;;;;;5021791;28;20432;-82
2022/05/28 08:49:00;;;;;;;9.45;4.57;;;;;;;;;;5004671;28;20042;-82
2022/05/28 08:51:44;;;;;;;12.75;4.95;;;;;;;;;;5020404;28;20029;-82
2022/05/28 08:54:40;;;;;;;7.40;4.10;;;;;;;;;;5020444;28;20025;-81
2022/05/28 08:57:18;;;;;;;8.73;4.38;;;;;;;;;;5018114;28;20044;-82
2022/05/28 08:59:56;;;;;;;8.93;5.00;;;;;;;;;;5010417;28;20148;-84
2022/05/28 09:02:45;;;;;;;7.75;4.38;;;;;;;;;;5017461;28;20033;-82
2022/05/28 09:05:34;;;;;;;8.45;4.18;;;;;;;;;;5021536;28;20084;-86
2022/05/28 09:08:04;;;;;;;9.73;4.22;;;;;;;;;;5019028;28;20033;-84
2022/05/28 09:10:37;;;;;;;6.95;3.97;;;;;;;;;;5019466;28;20108;-84
2022/05/28 09:13:21;;;;;;;9.77;4.57;;;;;;;;;;5013015;28;20037;-83
2022/05/28 09:15:47;;;;;;;10.48;4.78;;;;;;;;;;5019009;28;20033;-83
2022/05/28 09:18:12;;;;;;;8.88;4.40;;;;;;;;;;5004284;28;20075;-84
2022/05/28 09:20:40;;;;;;;8.45;4.50;;;;;;;;;;5021299;28;20025;-83
2022/05/28 09:23:06;;;;;;;6.07;4.32;;;;;;;;;;5021601;28;20042;-82
2022/05/28 09:25:37;;;;;;;9.23;4.45;;;;;;;;;;5022067;28;20030;-84
2022/05/28 09:28:02;;;;;;;11.02;4.80;;;;;;;;;;5020271;28;20446;-81
2022/05/28 09:30:52;;;;;;;8.68;4.32;;;;;;;;;;5021357;28;20087;-82
2022/05/28 09:33:44;;;;;;;9.23;5.00;;;;;;;;;;5027113;28;20485;-81
2022/05/28 09:36:18;;;;;;;11.10;4.53;;;;;;;;;;5017339;28;20018;-82
2022/05/28 09:39:08;;;;;;;9.85;4.75;;;;;;;;;;5000526;28;20037;-82
2022/05/28 09:41:40;;;;;;;12.93;4.63;;;;;;;;;;4998694;28;20155;-83
2022/05/28 09:44:29;;;;;;;9.25;4.78;;;;;;;;;;5001637;28;20478;-82
2022/05/28 09:47:06;;;;;;;8.48;4.80;;;;;;;;;;5024722;28;20454;-82
2022/05/28 09:49:32;;;;;;;9.50;5.15;;;;;;;;;;5019177;28;20456;-82
2022/05/28 09:52:10;;;;;;;8.13;5.45;;;;;;;;;;5004468;28;20042;-84
2022/05/28 09:54:36;;;;;;;11.63;4.60;;;;;;;;;;5018121;28;20033;-83
2022/05/28 09:57:26;;;;;;;8.80;4.53;;;;;;;;;;5019067;28;20038;-82
2022/05/28 09:59:56;;;;;;;;;;;;;;;;;;5014741;28;20032;-82
2022/05/28 10:02:40;;;;;;;7.10;4.25;;;;;;;;;;5030863;28;20024;-83
2022/05/28 10:05:16;;;;;;;9.80;4.68;;;;;;;;;;5025692;28;20033;-86
2022/05/28 10:07:43;;;;;;;11.77;5.22;;;;;;;;;;5027442;28;20028;-82
2022/05/28 10:10:29;;;;;;;9.57;4.53;;;;;;;;;;5025475;28;20025;-83
2022/05/28 10:13:15;;;;;;;9.65;5.28;;;;;;;;;;5023790;28;20046;-84
2022/05/28 10:15:49;;;;;;;6.60;4.70;;;;;;;;;;5009274;28;20041;-83
2022/05/28 10:18:23;;;;;;;7.82;5.00;;;;;;;;;;5007731;28;20036;-83
2022/05/28 10:21:29;;;;;;;7.20;4.82;;;;;;;;;;5024568;28;20040;-85
2022/05/28 10:24:00;;;;;;;9.43;5.40;;;;;;;;;;5000219;28;20042;-83
2022/05/28 10:26:36;;;;;;;8.18;4.78;;;;;;;;;;5021551;28;20389;-81
2022/05/28 10:29:15;;;;;;;7.97;4.50;;;;;;;;;;5020416;28;20137;-82
2022/05/28 10:31:41;;;;;;;7.93;4.55;;;;;;;;;;5022087;28;20481;-83
2022/05/28 10:34:20;;;;;;;8.90;4.75;;;;;;;;;;5014088;28;20036;-83
2022/05/28 10:36:46;;;;;;;8.48;4.93;;;;;;;;;;5025236;28;20037;-84
2022/05/28 10:39:16;;;;;;;9.23;5.30;;;;;;;;;;5024079;28;20029;-82
2022/05/28 10:41:49;;;;;;;7.05;4.88;;;;;;;;;;5028159;28;20373;-80
2022/05/28 10:44:19;;;;;;;10.23;4.93;;;;;;;;;;5004896;28;20056;-83
2022/05/28 10:47:03;;;;;;;;;;;;;;;;;;5024461;28;20056;-83
2022/05/28 10:49:53;;;;;;;7.18;4.60;;;;;;;;;;5026902;28;19925;-79
2022/05/28 10:52:34;;;;;;;7.90;4.30;;;;;;;;;;5024326;28;20026;-81
2022/05/28 10:55:14;;;;;;;11.15;5.25;;;;;;;;;;5027963;28;20025;-82
2022/05/28 10:57:58;;;;;;;10.55;4.65;;;;;;;;;;5026523;28;20034;-87
2022/05/28 11:01:17;;;;;;;9.27;5.07;;;;;;;;;;5029374;28;20029;-83
2022/05/28 11:03:45;;;;;;;;;;;;;;;;;;4972680;28;20026;-81
2022/05/28 11:06:42;;;;;;;8.90;4.47;;;;;;;;;;5021608;28;20158;-82
2022/05/28 11:09:26;;;;;;;10.30;4.97;;;;;;;;;;5029152;28;20029;-82
2022/05/28 11:12:20;;;;;;;5.68;4.05;;;;;;;;;;5024978;28;20041;-80
2022/05/28 11:15:06;;;;;;;13.02;5.78;;;;;;;;;;5018936;28;20028;-81
2022/05/28 11:17:46;;;;;;;7.47;4.53;;;;;;;;;;5021560;28;20026;-81
2022/05/28 11:20:40;;;;;;;9.27;4.75;;;;;;;;;;5030264;28;20506;-83
2022/05/28 11:23:28;;;;;;;7.68;4.20;;;;;;;;;;5023266;28;20414;-82
2022/05/28 11:26:19;;;;;;;6.25;4.45;;;;;;;;;;5017105;28;20162;-82
2022/05/28 11:29:03;;;;;;;9.63;4.18;;;;;;;;;;5012777;28;20041;-83
2022/05/28 11:31:59;;;;;;;8.93;4.68;;;;;;;;;;5016716;28;20029;-81
2022/05/28 11:34:40;;;;;;;8.05;4.57;;;;;;;;;;5016688;28;20032;-80
2022/05/28 11:37:09;;;;;;;10.90;5.10;;;;;;;;;;5004680;28;20029;-80
2022/05/28 11:39:40;;;;;;;9.15;4.30;;;;;;;;;;5022241;28;20061;-81
2022/05/28 11:42:31;;;;;;;7.97;4.40;;;;;;;;;;5004051;28;20037;-82
2022/05/28 11:44:59;;;;;;;9.48;5.05;;;;;;;;;;5016591;28;20079;-83
2022/05/28 11:47:46;;;;;;;8.05;5.07;;;;;;;;;;5006688;28;20558;-82
2022/05/28 11:53:35;;;;;;;8.45;4.55;;;;;;;;;;5011329;28;20096;-80
2022/05/28 11:56:06;;;;;;;7.15;4.75;;;;;;;;;;5013716;28;20128;-81
2022/05/28 11:58:37;;;;;;;9.65;5.20;;;;;;;;;;5011844;28;20041;-84
2022/05/28 12:01:10;;;;;;;11.27;4.40;;;;;;;;;;5010929;28;20130;-86
2022/05/28 12:03:36;;;;;;;10.73;5.45;;;;;;;;;;5012162;28;20029;-86
2022/05/28 12:06:02;;;;;;;7.57;4.68;;;;;;;;;;4995388;28;20029;-84
2022/05/28 12:08:39;;;;;;;11.63;5.88;;;;;;;;;;5012094;28;20398;-85
2022/05/28 12:11:20;;;;;;;10.05;5.15;;;;;;;;;;5011679;28;20021;-85
2022/05/28 12:13:51;;;;;;;15.25;6.22;;;;;;;;;;5011915;28;20018;-86
2022/05/28 12:16:17;;;;;;;11.35;6.07;;;;;;;;;;4994115;28;20021;-84
2022/05/28 12:18:59;;;;;;;9.02;5.68;;;;;;;;;;5012526;28;20033;-84
2022/05/28 12:21:27;;;;;;;8.93;5.72;;;;;;;;;;5027873;28;20038;-84
2022/05/28 12:24:07;;;;;;;9.73;5.60;;;;;;;;;;4994288;28;20382;-83
2022/05/28 12:26:48;;;;;;;9.73;5.38;;;;;;;;;;5011451;28;20104;-84
2022/05/28 12:29:33;;;;;;;8.85;5.35;;;;;;;;;;5011022;28;20029;-83
2022/05/28 12:32:17;;;;;;;10.73;5.68;;;;;;;;;;4995385;28;20192;-86
2022/05/28 12:34:54;;;;;;;7.05;5.82;;;;;;;;;;5005939;28;20025;-86
2022/05/28 12:37:25;;;;;;;12.93;5.53;;;;;;;;;;5007964;28;20107;-85
2022/05/28 12:40:05;;;;;;;9.63;5.32;;;;;;;;;;5012259;28;20042;-85
2022/05/28 12:42:31;;;;;;;9.23;6.25;;;;;;;;;;5012436;28;20465;-82
2022/05/28 12:45:11;;;;;;;8.38;5.63;;;;;;;;;;5009179;28;20037;-83
2022/05/28 12:47:37;;;;;;;12.40;5.80;;;;;;;;;;5008363;28;20056;-84
2022/05/28 12:50:07;;;;;;;9.80;6.15;;;;;;;;;;5014224;28;20482;-84
2022/05/28 12:52:32;;;;;;;11.07;6.32;;;;;;;;;;5013416;28;20394;-83
2022/05/28 12:55:01;;;;;;;13.45;5.90;;;;;;;;;;5011604;28;20033;-83
2022/05/28 12:57:34;;;;;;;10.85;5.35;;;;;;;;;;5007888;28;20029;-83
2022/05/28 13:00:20;;;;;;;15.65;5.90;;;;;;;;;;4995737;28;20044;-83
2022/05/28 13:02:58;;;;;;;12.68;5.70;;;;;;;;;;5010930;28;20548;-82
2022/05/28 13:05:42;;;;;;;13.07;6.72;;;;;;;;;;5005486;28;20053;-86
2022/05/28 13:08:48;;;;;;;10.07;5.78;;;;;;;;;;5009710;28;20109;-82
2022/05/28 13:11:46;;;;;;;12.43;6.05;;;;;;;;;;4939099;29;20063;-84
2022/05/28 13:14:52;;;;;;;14.20;6.15;;;;;;;;;;5007209;28;20051;-82
2022/05/28 13:17:33;;;;;;;12.48;5.25;;;;;;;;;;5011241;28;20033;-82
2022/05/28 13:20:08;;;;;;;12.90;5.00;;;;;;;;;;5007948;28;20050;-82
2022/05/28 13:22:58;;;;;;;9.20;4.93;;;;;;;;;;5005902;28;20489;-82
2022/05/28 13:25:39;;;;;;;16.08;5.68;;;;;;;;;;4993625;28;20366;-83
2022/05/28 13:28:35;;;;;;;11.00;4.30;;;;;;;;;;5010361;28;20022;-82
2022/05/28 13:31:10;;;;;;;9.38;5.13;;;;;;;;;;4995583;28;20146;-81
2022/05/28 13:33:37;;;;;;;12.00;5.63;;;;;;;;;;5009970;28;20025;-83
2022/05/28 13:36:07;;;;;;;9.63;4.47;;;;;;;;;;4991719;28;20037;-82
2022/05/28 13:38:42;;;;;;;12.80;5.22;;;;;;;;;;5014658;28;20429;-82
2022/05/28 13:41:15;;;;;;;15.75;4.90;;;;;;;;;;5014144;28;20036;-82
2022/05/28 13:43:46;;;;;;;11.27;5.97;;;;;;;;;;4995992;28;20512;-80
2022/05/28 13:46:14;;;;;;;12.38;6.10;;;;;;;;;;5015020;28;20049;-81
2022/05/28 13:48:50;;;;;;;12.57;5.35;;;;;;;;;;5016594;28;20069;-80
2022/05/28 13:51:17;;;;;;;13.75;5.38;;;;;;;;;;5025518;28;20567;-82
2022/05/28 13:53:47;;;;;;;10.07;5.05;;;;;;;;;;5029602;28;20496;-84
2022/05/28 13:56:19;;;;;;;12.23;5.50;;;;;;;;;;5029419;28;20025;-81
2022/05/28 13:58:44;;;;;;;14.63;6.00;;;;;;;;;;5010549;28;20125;-81
2022/05/28 14:01:31;;;;;;;10.60;5.30;;;;;;;;;;5017536;28;20110;-82
2022/05/28 14:04:21;;;;;;;12.07;6.22;;;;;;;;;;5018904;28;20128;-82
2022/05/28 14:06:49;;;;;;;;;;;;;;;;;;5007456;28;20131;-83
2022/05/28 14:09:17;;;;;;;14.63;7.05;;;;;;;;;;5010582;28;19917;-83
2022/05/28 14:11:49;;;;;;;16.38;6.75;;;;;;;;;;5030887;28;20071;-82
2022/05/28 14:14:26;;;;;;;18.58;8.65;;;;;;;;;;5027637;28;20034;-84
2022/05/28 14:16:57;;;;;;;12.60;6.95;;;;;;;;;;5029618;28;20029;-84
2022/05/28 14:19:32;;;;;;;17.70;7.25;;;;;;;;;;5029042;28;20029;-80
2022/05/28 14:22:01;;;;;;;15.13;7.72;;;;;;;;;;5019758;28;20100;-82
2022/05/28 14:24:31;;;;;;;14.63;8.55;;;;;;;;;;5008969;28;20033;-82
2022/05/28 14:27:19;;;;;;;16.58;8.18;;;;;;;;;;5030873;28;20346;-81
2022/05/28 14:29:47;;;;;;;12.52;7.65;;;;;;;;;;5023947;28;20029;-82
2022/05/28 14:32:15;;;;;;;15.77;7.85;;;;;;;;;;5022493;28;20100;-83
2022/05/28 14:34:46;;;;;;;15.88;8.02;;;;;;;;;;5030859;28;20477;-81
2022/05/28 14:37:31;;;;;;;13.38;6.75;;;;;;;;;;5022420;28;20033;-85
2022/05/28 14:39:58;;;;;;;20.83;8.15;;;;;;;;;;5025379;28;20036;-84
2022/05/28 14:42:30;;;;;;;16.80;7.93;;;;;;;;;;5028370;28;20025;-82
2022/05/28 14:44:55;;;;;;;18.25;7.85;;;;;;;;;;5009676;28;20032;-84
2022/05/28 14:47:28;;;;;;;14.25;8.00;;;;;;;;;;5002654;28;20104;-84
2022/05/28 14:49:57;;;;;;;17.17;8.25;;;;;;;;;;5024750;28;20049;-82
2022/05/28 14:52:24;;;;;;;23.90;16.80;;;;;;;;;;5010723;28;20432;-84
2022/05/28 14:55:00;;;;;;;13.82;8.40;;;;;;;;;;5008191;28;20029;-84
2022/05/28 14:57:28;;;;;;;17.00;10.30;;;;;;;;;;5025148;28;20428;-85
2022/05/28 14:59:55;;;;;;;12.48;8.18;;;;;;;;;;5031394;28;20037;-84
2022/05/28 15:02:29;;;;;;;13.43;7.45;;;;;;;;;;5010817;28;20056;-85
2022/05/28 15:05:26;;;;;;;16.83;8.10;;;;;;;;;;5008004;28;20378;-84
2022/05/28 15:08:02;;;;;;;15.05;6.68;;;;;;;;;;5009183;28;20504;-84
2022/05/28 15:10:37;;;;;;;15.82;7.55;;;;;;;;;;5026845;28;20108;-83
2022/05/28 15:13:22;;;;;;;15.15;6.70;;;;;;;;;;5012339;28;20033;-83
2022/05/28 15:15:53;;;;;;;15.75;8.43;;;;;;;;;;5028056;28;20477;-85
2022/05/28 15:18:19;;;;;;;14.05;8.45;;;;;;;;;;5030096;28;20064;-85